nws-alerts: Checking more than four warning/county codes can delay the loading of your pages. You should use a cron job to get the data.

Nearby METAR Reports

 

KFCI - Richmond/Chester, Virginia, USA
Distance from station: ESE 7mi, 11km
Updated: Mon, 17-May-2021 10:56am EDT
NOT Current
Clear
Clear
 Wind from calm
Wind: Calm
Temperature: 70°F , 21°C
Dew Point: 50°F , 10°C
Humidity: 50%
Clouds: Clear
Visibility: 10 miles , 16 km
2021/05/17 14:56 KFCI 171456Z AUTO 00000KT 10SM CLR 21/10 RMK AO2 SLPNO T02060100 $
KRIC - Richmond, Virginia, USA
Distance from station: ENE 19mi, 30km
Updated: Mon, 17-May-2021 2:54pm EDT
Mostly cloudy
Mostly cloudy
 Wind from varies
Wind: varies 3 mph , 6 km/h
Temperature: 73°F , 23°C
Dew Point: 46°F , 8°C
Humidity: 38%
Barometer: 30.27 inHg , 1025.1 hPa
Clouds: Mostly cloudy
Visibility: 10 miles , 16 km
Cloud details: Mostly cloudy 6500 ft
Mostly cloudy 19000 ft
Mostly cloudy 30000 ft
2021/05/17 18:54 KRIC 171854Z VRB03KT 10SM BKN065 BKN190 BKN300 23/08 A3027 RMK AO2 SLP256 T02280078
 
KPTB - Petersburg, Virginia, USA
Distance from station: SSE 19mi, 31km
Updated: Mon, 17-May-2021 2:55pm EDT
Mostly cloudy
Mostly cloudy
 Wind from NE
Wind: NE 6 mph , 9 km/h
Temperature: 73°F , 23°C
Dew Point: 46°F , 8°C
Humidity: 38%
Barometer: 30.28 inHg , 1025.4 hPa
Clouds: Mostly cloudy
Visibility: 10 miles , 16 km
Cloud details: Partly cloudy 6000 ft
Mostly cloudy 7500 ft
2021/05/17 18:55 KPTB 171855Z AUTO 05005KT 10SM SCT060 BKN075 23/08 A3028 RMK AO2 T02330078
KOFP - Richmond/Hanover, Virginia, USA
Distance from station: NNE 22mi, 36km
Updated: Mon, 17-May-2021 2:54pm EDT
Partly cloudy
Partly cloudy
 Wind from calm
Wind: Calm
Temperature: 73°F , 23°C
Dew Point: 45°F , 7°C
Humidity: 36%
Barometer: 30.29 inHg , 1025.7 hPa
Clouds: Partly cloudy
Visibility: 10 miles , 16 km
Cloud details: Partly cloudy 7500 ft
2021/05/17 18:54 KOFP 171854Z AUTO 00000KT 10SM SCT075 23/07 A3029 RMK AO2 SLP255 T02330072
 
KW96 - Quinton, Virginia, USA
Distance from station: E 28mi, 46km
Updated: Mon, 17-May-2021 2:55pm EDT
Mostly cloudy
Mostly cloudy
 Wind from ESE
Wind: ESE 6 mph , 9 km/h
Temperature: 72°F , 22°C
Dew Point: 48°F , 9°C
Humidity: 44%
Barometer: 30.28 inHg , 1025.4 hPa
Clouds: Mostly cloudy
Visibility: 10 miles , 16 km
Cloud details: Partly cloudy 6000 ft
Mostly cloudy 7000 ft
2021/05/17 18:55 KW96 171855Z AUTO 11005KT 10SM SCT060 BKN070 22/09 A3028 RMK AO1 T02240089
KBKT - Blackstone Army, Virginia, USA
Distance from station: SW 30mi, 48km
Updated: Mon, 17-May-2021 2:56pm EDT
Overcast
Overcast
 Wind from SE
Wind: SE 5 mph , 7 km/h
Temperature: 73°F , 23°C
Dew Point: 52°F , 11°C
Humidity: 47%
Barometer: 30.27 inHg , 1025.1 hPa
Clouds: Overcast
Visibility: 10 miles , 16 km
Cloud details: Mostly cloudy 5000 ft
Overcast 16000 ft
2021/05/17 18:56 KBKT 171856Z AUTO 13004KT 10SM BKN050 OVC160 23/11 A3027 RMK AO2 SLP252 T02260107 $
 
KW81 - Crewe, Virginia, USA
Distance from station: SW 30mi, 49km
Updated: Mon, 17-May-2021 2:55pm EDT
Overcast
Overcast
 Wind from calm
Wind: Calm
Temperature: 72°F , 22°C
Dew Point: 45°F , 7°C
Humidity: 38%
Barometer: 30.28 inHg , 1025.4 hPa
Clouds: Overcast
Visibility: 10 miles , 16 km
Cloud details: Partly cloudy 5000 ft
Mostly cloudy 7000 ft
Overcast 8000 ft
2021/05/17 18:55 KW81 171855Z AUTO 00000KT 10SM SCT050 BKN070 OVC080 22/07 A3028 RMK AO1 T02160072
K7W4 - Bumpass, Virginia, USA
Distance from station: N 38mi, 61km
Updated: Mon, 17-May-2021 2:55pm EDT
Partly cloudy
Partly cloudy
 Wind from W
Wind: W 6 mph , 9 km/h
Temperature: 73°F , 23°C
Dew Point: 45°F , 7°C
Humidity: 36%
Barometer: 30.28 inHg , 1025.4 hPa
Clouds: Partly cloudy
Visibility: 10 miles , 16 km
Cloud details: Partly cloudy 5500 ft
Partly cloudy 6500 ft
Partly cloudy 8000 ft
2021/05/17 18:55 K7W4 171855Z AUTO 28005KT 10SM SCT055 SCT065 SCT080 23/07 A3028 RMK AO1 T02300069
 
KFVX - Farmville, Virginia, USA
Distance from station: W 43mi, 69km
Updated: Mon, 17-May-2021 2:55pm EDT
Overcast
Overcast
 Wind from calm
Wind: Calm
Temperature: 70°F , 21°C
Dew Point: 54°F , 12°C
Humidity: 57%
Barometer: 30.28 inHg , 1025.4 hPa
Clouds: Overcast
Visibility: 10 miles , 16 km
Cloud details: Mostly cloudy 5500 ft
Overcast 6500 ft
2021/05/17 18:55 KFVX 171855Z AUTO 00000KT 10SM BKN055 OVC065 21/12 A3028 RMK AO2 T02120118
KW31 - Kenbridge, Virginia, USA
Distance from station: SW 43mi, 70km
Updated: Mon, 17-May-2021 2:55pm EDT
Overcast
Overcast
 Wind from calm
Wind: Calm
Temperature: 72°F , 22°C
Dew Point: 50°F , 10°C
Humidity: 47%
Barometer: 30.28 inHg , 1025.4 hPa
Clouds: Overcast
Visibility: 10 miles , 16 km
Cloud details: Partly cloudy 5500 ft
Mostly cloudy 6500 ft
Overcast 7500 ft
2021/05/17 18:55 KW31 171855Z AUTO 00000KT 10SM SCT055 BKN065 OVC075 22/10 A3028 RMK AO1 T02160104
 
KLKU - Louisa, Virginia, USA
Distance from station: NNW 44mi, 72km
Updated: Mon, 17-May-2021 2:55pm EDT
Partly cloudy
Partly cloudy
 Wind from WSW
Wind: WSW 3 mph , 6 km/h
Temperature: 72°F , 22°C
Dew Point: 50°F , 10°C
Humidity: 47%
Barometer: 30.33 inHg , 1027.1 hPa
Clouds: Partly cloudy
Visibility: 10 miles , 16 km
Cloud details: Partly cloudy 5000 ft
2021/05/17 18:55 KLKU 171855Z AUTO 24003KT 10SM SCT050 22/10 A3033 RMK AO2 T02220099
KLVL - Lawrenceville, Virginia, USA
Distance from station: S 46mi, 75km
Updated: Mon, 17-May-2021 2:55pm EDT
Partly cloudy
Partly cloudy
 Wind from calm
Wind: Calm
Temperature: 73°F , 23°C
Dew Point: 46°F , 8°C
Humidity: 38%
Barometer: 30.28 inHg , 1025.4 hPa
Clouds: Partly cloudy
Visibility: 10 miles , 16 km
Cloud details: Partly cloudy 6500 ft
2021/05/17 18:55 KLVL 171855Z AUTO 00000KT 10SM SCT065 23/08 A3028 RMK AO1 T02300081
 
KAKQ - Norfolk/Wakefld, Virginia, USA
Distance from station: SE 47mi, 75km
Updated: Mon, 17-May-2021 2:54pm EDT
Partly cloudy
Partly cloudy
 Wind from varies
Wind: varies 3 mph , 6 km/h
Temperature: 73°F , 23°C
Dew Point: 48°F , 9°C
Humidity: 41%
Barometer: 30.27 inHg , 1025.1 hPa
Clouds: Partly cloudy
Visibility: 10 miles , 16 km
Cloud details: Few Clouds 6000 ft
Partly cloudy 8000 ft
2021/05/17 18:54 KAKQ 171854Z AUTO VRB03KT 10SM FEW060 SCT080 23/09 A3027 RMK AO2 SLP251 T02330089
KFYJ - West Point, Virginia, USA
Distance from station: E 48mi, 78km
Updated: Mon, 17-May-2021 2:55pm EDT
Clear
Clear
 Wind from SSE
Wind: SSE 7 mph , 11 km/h
Temperature: 75°F , 24°C
Dew Point: 48°F , 9°C
Humidity: 39%
Barometer: 30.29 inHg , 1025.7 hPa
Clouds: Clear
Visibility: 10 miles , 16 km
2021/05/17 18:55 KFYJ 171855Z AUTO 16006KT 10SM CLR 24/09 A3029 RMK AO1 T02370087